Time;durP1;ratioP1;P1;durP2;ratioP2;P2;SDS_P1;SDS_P2;PMS_P1;PMS_P2;Temp;Humidity;BMP_temperature;BMP_pressure;BME280_temperature;BME280_humidity;BME280_pressure;Samples;Min_cycle;Max_cycle;Signal;HPM_P1;HPM_P2
2021/05/05 00:01:50;;;;;;;2.97;1.10;;;;;;;15.47;47.19;99832.13;5057227;28;20036;-70
2021/05/05 00:04:15;;;;;;;3.97;1.30;;;;;;;15.43;47.35;99831.16;5051163;28;20029;-70
2021/05/05 00:06:41;;;;;;;1.20;0.90;;;;;;;15.47;47.13;99834.88;5055348;28;20024;-70
2021/05/05 00:09:06;;;;;;;2.80;1.10;;;;;;;15.45;47.41;99828.91;5054300;28;20021;-70
2021/05/05 00:11:32;;;;;;;3.20;1.38;;;;;;;15.41;47.35;99830.69;5058961;28;20535;-70
2021/05/05 00:13:57;;;;;;;2.05;1.10;;;;;;;15.40;47.46;99816.16;5055271;28;20032;-70
2021/05/05 00:16:22;;;;;;;4.53;1.10;;;;;;;15.39;47.26;99810.97;5060411;28;20032;-70
2021/05/05 00:18:48;;;;;;;4.95;1.30;;;;;;;15.35;47.46;99810.81;5059221;28;20191;-70
2021/05/05 00:21:13;;;;;;;2.83;1.27;;;;;;;15.37;47.46;99818.75;5055465;28;20064;-70
2021/05/05 00:23:39;;;;;;;3.20;1.40;;;;;;;15.33;47.44;99804.03;5039396;28;20390;-70
2021/05/05 00:26:04;;;;;;;3.17;1.25;;;;;;;15.36;47.30;99817.13;5041984;28;20033;-72
2021/05/05 00:28:29;;;;;;;2.70;1.30;;;;;;;15.33;47.19;99813.06;5041951;28;20108;-70
2021/05/05 00:30:55;;;;;;;2.67;1.25;;;;;;;15.30;47.50;99810.97;5053791;28;20029;-70
2021/05/05 00:33:20;;;;;;;3.33;1.20;;;;;;;15.25;47.72;99811.13;5040181;28;20021;-70
2021/05/05 00:35:46;;;;;;;2.05;1.10;;;;;;;15.12;47.85;99788.22;5055413;28;20028;-70
2021/05/05 00:38:11;;;;;;;3.33;1.10;;;;;;;15.20;48.12;99805.81;5055724;28;20029;-70
2021/05/05 00:40:37;;;;;;;2.92;1.30;;;;;;;15.18;47.95;99799.81;5055076;28;20048;-70
2021/05/05 00:43:03;;;;;;;2.70;1.30;;;;;;;15.19;48.03;99802.28;5055325;28;20033;-70
2021/05/05 00:45:28;;;;;;;3.40;1.35;;;;;;;15.16;48.23;99796.63;5049346;28;20040;-70
2021/05/05 00:47:53;;;;;;;4.50;1.40;;;;;;;15.21;48.28;99799.97;5056000;28;20389;-71
2021/05/05 00:50:19;;;;;;;2.50;1.27;;;;;;;15.13;48.34;99792.56;5055723;28;20106;-71
2021/05/05 00:52:45;;;;;;;3.78;1.38;;;;;;;15.19;48.45;99802.28;5054585;28;20037;-71
2021/05/05 00:55:11;;;;;;;2.40;1.33;;;;;;;15.17;48.49;99803.69;5053687;28;20167;-71
2021/05/05 00:57:38;;;;;;;2.53;1.30;;;;;;;15.13;48.65;99800.00;5048278;28;20029;-71
2021/05/05 01:00:06;;;;;;;4.15;1.50;;;;;;;15.09;49.03;99794.34;5052865;28;20032;-72
2021/05/05 01:02:32;;;;;;;3.05;1.33;;;;;;;15.08;49.11;99799.03;5036266;28;20489;-71
2021/05/05 01:04:57;;;;;;;2.95;1.50;;;;;;;15.04;49.25;99798.06;5050213;28;20508;-71
2021/05/05 01:07:23;;;;;;;2.67;1.48;;;;;;;15.01;49.32;99798.69;5051462;28;20056;-71
2021/05/05 01:09:48;;;;;;;3.83;1.38;;;;;;;15.02;49.27;99786.59;5054037;28;20492;-70
2021/05/05 01:12:15;;;;;;;3.55;1.50;;;;;;;15.03;49.35;99790.97;5055702;28;20037;-71
2021/05/05 01:14:41;;;;;;;1.98;1.15;;;;;;;15.00;49.30;99777.88;5047765;28;20385;-70
2021/05/05 01:17:07;;;;;;;2.25;1.30;;;;;;;15.04;49.54;99780.81;5064324;28;20374;-71
2021/05/05 01:19:33;;;;;;;2.33;1.10;;;;;;;15.03;49.41;99779.97;5066134;28;20042;-70
2021/05/05 01:21:59;;;;;;;2.95;1.40;;;;;;;14.99;49.35;99767.22;5047272;28;20044;-71
2021/05/05 01:24:24;;;;;;;2.15;1.20;;;;;;;14.99;49.32;99775.47;5051956;28;20037;-70
2021/05/05 01:26:50;;;;;;;2.70;1.30;;;;;;;14.99;49.34;99773.53;5054887;28;20024;-72
2021/05/05 01:29:15;;;;;;;5.43;1.27;;;;;;;14.97;49.73;99767.56;5062690;28;20464;-71
2021/05/05 01:31:40;;;;;;;1.95;1.10;;;;;;;14.93;49.58;99767.41;5054591;28;20098;-71
2021/05/05 01:34:06;;;;;;;2.60;1.38;;;;;;;14.92;49.70;99763.03;5055978;28;20021;-70
2021/05/05 01:36:36;;;;;;;1.90;1.00;;;;;;;14.87;49.87;99763.22;5061713;28;20035;-70
2021/05/05 01:39:06;;;;;;;1.52;1.13;;;;;;;14.73;49.98;99749.63;5054577;28;20325;-71
2021/05/05 01:41:34;;;;;;;2.15;1.08;;;;;;;14.80;50.17;99757.38;5055032;28;20060;-70
2021/05/05 01:43:59;;;;;;;3.55;1.20;;;;;;;14.80;50.36;99757.38;5055551;28;20084;-70
2021/05/05 01:46:25;;;;;;;1.63;1.17;;;;;;;14.83;50.11;99762.22;5055715;28;20056;-71
2021/05/05 01:48:50;;;;;;;2.60;1.10;;;;;;;14.77;50.22;99749.78;5051282;28;20051;-71
2021/05/05 01:51:16;;;;;;;1.55;1.00;;;;;;;14.61;50.02;99730.22;5055238;28;20021;-70
2021/05/05 01:53:41;;;;;;;2.95;1.10;;;;;;;14.77;50.13;99756.06;5055122;28;20027;-70
2021/05/05 01:56:07;;;;;;;1.40;0.85;;;;;;;14.77;50.42;99755.28;5053369;28;20059;-71
2021/05/05 01:58:33;;;;;;;2.10;1.33;;;;;;;14.76;50.22;99759.16;5053760;28;20021;-70
2021/05/05 02:01:01;;;;;;;1.38;0.95;;;;;;;14.67;50.57;99742.66;5054973;28;20123;-70
2021/05/05 02:03:26;;;;;;;2.25;1.13;;;;;;;14.76;50.17;99756.41;5052139;28;20025;-71
2021/05/05 02:05:52;;;;;;;1.92;1.00;;;;;;;14.75;50.36;99752.06;5052688;28;20104;-71
2021/05/05 02:08:17;;;;;;;1.83;1.00;;;;;;;14.73;50.29;99754.31;5053902;28;20440;-70
2021/05/05 02:10:45;;;;;;;2.88;1.10;;;;;;;14.71;50.31;99746.41;5052758;28;20017;-70
2021/05/05 02:13:11;;;;;;;4.57;1.00;;;;;;;14.69;50.48;99754.13;5045479;28;20416;-70
2021/05/05 02:15:36;;;;;;;3.33;0.90;;;;;;;14.66;50.51;99743.81;5053388;28;20408;-70
2021/05/05 02:18:02;;;;;;;1.80;1.05;;;;;;;14.63;50.13;99752.66;5054786;28;20045;-70
2021/05/05 02:20:28;;;;;;;1.45;0.90;;;;;;;14.60;50.54;99750.53;5045820;28;20445;-70
2021/05/05 02:22:53;;;;;;;2.45;0.90;;;;;;;14.62;50.63;99749.13;5050266;28;20437;-70
2021/05/05 02:25:19;;;;;;;2.42;1.05;;;;;;;14.61;50.68;99753.00;5046622;28;20057;-71
2021/05/05 02:27:45;;;;;;;1.35;0.90;;;;;;;14.61;50.61;99747.50;5053086;28;20052;-71
2021/05/05 02:30:13;;;;;;;1.55;0.90;;;;;;;14.63;50.66;99745.22;5045109;28;20449;-71
2021/05/05 02:32:40;;;;;;;1.42;0.80;;;;;;;14.64;50.50;99751.53;5049037;28;20032;-71
2021/05/05 02:35:08;;;;;;;2.33;0.98;;;;;;;14.62;50.61;99753.78;5043478;28;20075;-71
2021/05/05 02:37:35;;;;;;;1.45;0.98;;;;;;;14.51;50.64;99736.00;5054546;28;20028;-71
2021/05/05 02:40:00;;;;;;;1.00;0.70;;;;;;;14.60;50.66;99750.53;5052862;28;20469;-71
2021/05/05 02:42:25;;;;;;;1.40;0.90;;;;;;;14.58;50.83;99755.56;5053889;28;20574;-71
2021/05/05 02:44:52;;;;;;;2.35;1.08;;;;;;;14.58;50.83;99761.06;5057661;28;20435;-70
2021/05/05 02:47:20;;;;;;;1.58;0.90;;;;;;;14.60;50.71;99745.06;5057066;28;20036;-70
2021/05/05 02:49:46;;;;;;;1.85;1.00;;;;;;;14.62;50.89;99743.63;5055562;28;20124;-71
2021/05/05 02:52:12;;;;;;;1.23;0.90;;;;;;;14.43;51.08;99710.19;5055750;28;20044;-70
2021/05/05 02:54:37;;;;;;;1.95;0.90;;;;;;;14.60;50.90;99758.78;5039436;28;20025;-72
2021/05/05 02:57:03;;;;;;;2.70;0.85;;;;;;;14.61;50.90;99754.91;5043371;28;20112;-71
2021/05/05 02:59:29;;;;;;;1.52;0.80;;;;;;;14.60;51.09;99756.84;5056206;28;20029;-71
2021/05/05 03:01:56;;;;;;;3.03;1.10;;;;;;;14.58;51.33;99747.34;5049780;28;20043;-71
2021/05/05 03:04:22;;;;;;;1.45;1.00;;;;;;;14.54;51.33;99740.88;5048172;28;20390;-71
2021/05/05 03:06:47;;;;;;;1.80;1.10;;;;;;;14.46;51.36;99732.31;5054587;28;20033;-71
2021/05/05 03:09:15;;;;;;;1.70;1.00;;;;;;;14.59;51.78;99755.25;5049720;28;20047;-71
2021/05/05 03:11:41;;;;;;;2.72;0.80;;;;;;;14.58;51.93;99750.88;5058212;28;20036;-70
2021/05/05 03:14:06;;;;;;;1.23;0.80;;;;;;;14.61;52.01;99747.50;5056424;28;20025;-70
2021/05/05 03:16:31;;;;;;;3.67;1.05;;;;;;;14.53;52.39;99742.81;5052291;28;20104;-70
2021/05/05 03:18:57;;;;;;;2.10;0.88;;;;;;;14.56;52.41;99744.91;5051718;28;20030;-70
2021/05/05 03:21:23;;;;;;;2.78;0.70;;;;;;;14.51;52.43;99730.53;5051800;28;20401;-70
2021/05/05 03:23:48;;;;;;;2.45;0.80;;;;;;;14.62;52.44;99734.56;5052792;28;20083;-70
2021/05/05 03:26:14;;;;;;;2.33;0.80;;;;;;;14.62;52.51;99743.63;5055216;28;20834;-70
2021/05/05 03:28:40;;;;;;;1.42;0.90;;;;;;;14.64;52.71;99735.06;5052091;28;20033;-70
2021/05/05 03:31:06;;;;;;;1.42;0.77;;;;;;;14.62;52.81;99743.63;5052508;28;20123;-71
2021/05/05 03:33:31;;;;;;;2.28;1.05;;;;;;;14.61;53.11;99742.00;5049786;28;20389;-70
2021/05/05 03:35:57;;;;;;;1.73;0.80;;;;;;;14.63;52.98;99745.22;5056318;28;20033;-70
2021/05/05 03:38:23;;;;;;;5.55;1.23;;;;;;;14.58;54.35;99737.16;5043867;28;20055;-71
2021/05/05 03:40:48;;;;;;;2.33;0.80;;;;;;;14.60;54.95;99750.53;5031162;28;710585;-71
2021/05/05 03:43:14;;;;;;;4.18;1.23;;;;;;;14.48;56.34;99740.22;5052951;28;20116;-70
2021/05/05 03:45:39;;;;;;;1.35;0.80;;;;;;;14.47;57.62;99749.56;5051359;28;20025;-70
2021/05/05 03:48:05;;;;;;;1.98;1.10;;;;;;;14.36;58.39;99756.50;5054364;28;20031;-71
2021/05/05 03:50:34;;;;;;;4.55;1.02;;;;;;;14.30;59.25;99747.63;5046330;28;20060;-70
2021/05/05 03:53:00;;;;;;;2.05;1.10;;;;;;;14.24;60.00;99754.38;5051550;28;20025;-70
2021/05/05 03:55:25;;;;;;;4.38;1.00;;;;;;;14.16;60.67;99756.78;5055400;28;20040;-70
2021/05/05 03:57:51;;;;;;;3.17;1.30;;;;;;;13.98;63.88;99755.91;5055798;28;20052;-70
2021/05/05 04:00:17;;;;;;;1.75;0.93;;;;;;;13.73;65.48;99745.63;5054483;28;20025;-69
2021/05/05 04:02:42;;;;;;;3.17;1.00;;;;;;;13.61;66.00;99757.19;5057964;28;20048;-70
2021/05/05 04:05:09;;;;;;;2.30;1.10;;;;;;;13.51;66.78;99761.81;5057075;28;20060;-70
2021/05/05 04:07:34;;;;;;;1.77;1.10;;;;;;;13.44;67.80;99766.94;5056490;28;20039;-71
2021/05/05 04:09:59;;;;;;;3.65;1.10;;;;;;;13.32;68.38;99767.47;5045793;28;20081;-69
2021/05/05 04:12:28;;;;;;;2.20;1.13;;;;;;;13.23;69.96;99772.06;5047250;28;20104;-69
2021/05/05 04:14:54;;;;;;;3.72;1.50;;;;;;;13.11;70.18;99778.13;5055986;28;20029;-70
2021/05/05 04:17:19;;;;;;;3.33;1.30;;;;;;;13.04;70.58;99767.63;5041514;28;20087;-71
2021/05/05 04:19:44;;;;;;;3.42;1.23;;;;;;;13.00;70.62;99771.28;5067545;28;20397;-70
2021/05/05 04:22:10;;;;;;;2.08;1.20;;;;;;;12.98;70.22;99773.50;5056500;28;20021;-70
2021/05/05 04:24:36;;;;;;;2.78;1.40;;;;;;;12.99;69.83;99773.19;5052472;28;20067;-71
2021/05/05 04:27:01;;;;;;;2.40;1.40;;;;;;;12.77;70.47;99749.34;5056986;28;20055;-69
2021/05/05 04:29:27;;;;;;;2.60;1.50;;;;;;;12.97;70.36;99786.41;5057025;28;20029;-70
2021/05/05 04:31:52;;;;;;;2.50;1.80;;;;;;;12.93;70.28;99777.19;5046150;28;20108;-70
2021/05/05 04:34:20;;;;;;;3.13;1.63;;;;;;;12.94;71.85;99792.47;5056488;28;20036;-69
2021/05/05 04:36:46;;;;;;;4.03;1.60;;;;;;;12.80;72.55;99789.00;5055591;28;20032;-69
2021/05/05 04:39:11;;;;;;;2.55;1.65;;;;;;;12.74;73.02;99794.56;5055384;28;20021;-69
2021/05/05 04:41:37;;;;;;;4.80;1.48;;;;;;;12.71;73.11;99803.41;5056008;28;20121;-69
2021/05/05 04:44:03;;;;;;;4.72;1.98;;;;;;;12.70;73.78;99809.97;5056740;28;20040;-69
2021/05/05 04:46:29;;;;;;;1.85;1.42;;;;;;;12.70;73.08;99803.69;5048115;28;20029;-68
2021/05/05 04:48:54;;;;;;;2.47;1.20;;;;;;;12.70;73.53;99812.72;5054909;28;20139;-69
2021/05/05 04:51:20;;;;;;;1.63;1.20;;;;;;;12.67;75.05;99826.19;5050853;28;20021;-70
2021/05/05 04:53:45;;;;;;;3.45;1.73;;;;;;;12.65;74.44;99831.16;5054508;28;20059;-69
2021/05/05 04:56:11;;;;;;;1.63;1.20;;;;;;;12.59;74.93;99824.97;5056474;28;20401;-70
2021/05/05 04:58:36;;;;;;;2.10;1.20;;;;;;;12.65;74.39;99828.41;5050451;28;20021;-70
2021/05/05 05:01:03;;;;;;;4.68;1.40;;;;;;;12.66;74.44;99830.84;5047635;28;21345;-69
2021/05/05 05:03:28;;;;;;;1.92;1.17;;;;;;;12.76;73.76;99846.25;5047513;28;20032;-69
2021/05/05 05:05:54;;;;;;;2.53;1.30;;;;;;;12.80;74.13;99851.91;5049446;28;20104;-70
2021/05/05 05:08:19;;;;;;;2.05;1.30;;;;;;;12.85;73.61;99854.53;5046220;28;20059;-70
2021/05/05 05:10:45;;;;;;;2.17;1.27;;;;;;;12.91;73.44;99850.56;5059977;28;20029;-69
2021/05/05 05:13:10;;;;;;;2.88;1.17;;;;;;;12.86;73.52;99837.78;5034642;28;20044;-70
2021/05/05 05:15:36;;;;;;;2.55;1.20;;;;;;;13.00;72.78;99856.13;5055271;28;20029;-70
2021/05/05 05:18:01;;;;;;;1.67;0.90;;;;;;;13.09;72.97;99865.22;5061319;28;20182;-70
2021/05/05 05:20:27;;;;;;;4.60;1.40;;;;;;;13.13;72.79;99873.63;5063411;28;20029;-70
2021/05/05 05:22:55;;;;;;;1.92;1.27;;;;;;;13.19;72.51;99875.13;5042317;28;20067;-70
2021/05/05 05:25:22;;;;;;;2.30;1.15;;;;;;;13.19;73.12;99888.81;5048748;28;20059;-70
2021/05/05 05:27:47;;;;;;;2.00;1.10;;;;;;;13.20;73.00;99895.91;5052496;28;20065;-70
2021/05/05 05:30:13;;;;;;;2.58;1.13;;;;;;;13.20;73.08;99884.97;5048733;28;20021;-70
2021/05/05 05:32:39;;;;;;;1.67;1.00;;;;;;;13.07;73.30;99870.97;5031722;28;20029;-70
2021/05/05 05:35:05;;;;;;;3.28;1.30;;;;;;;13.22;73.02;99883.53;5055915;28;20025;-72
2021/05/05 05:37:30;;;;;;;1.55;1.00;;;;;;;13.21;73.53;99892.84;5049618;28;20029;-70
2021/05/05 05:39:55;;;;;;;2.40;1.20;;;;;;;13.20;73.46;99888.50;5051753;28;20067;-70
2021/05/05 05:42:21;;;;;;;3.25;1.30;;;;;;;13.32;73.25;99898.09;5054021;28;20090;-70
2021/05/05 05:44:46;;;;;;;2.30;1.10;;;;;;;13.35;73.16;99898.28;5055600;28;20228;-70
2021/05/05 05:47:12;;;;;;;2.58;1.13;;;;;;;13.37;73.04;99897.97;5052281;28;20081;-70
2021/05/05 05:49:37;;;;;;;2.85;0.98;;;;;;;13.45;72.89;99901.94;5052963;28;20028;-71
2021/05/05 05:52:03;;;;;;;1.33;1.00;;;;;;;13.41;73.11;99911.88;5045250;28;20106;-71
2021/05/05 05:54:28;;;;;;;1.80;1.10;;;;;;;13.42;73.27;99918.97;5048104;28;20043;-70
2021/05/05 05:56:54;;;;;;;2.35;0.80;;;;;;;13.41;73.29;99920.94;5052640;28;20043;-71
2021/05/05 05:59:19;;;;;;;1.65;0.90;;;;;;;13.47;73.08;99919.69;5054905;28;20067;-68
2021/05/05 06:01:45;;;;;;;1.60;0.90;;;;;;;13.49;73.34;99922.94;5045548;28;20036;-70
2021/05/05 06:04:10;;;;;;;2.15;0.90;;;;;;;13.47;73.48;99924.34;5054037;28;20509;-70
2021/05/05 06:06:35;;;;;;;1.40;0.82;;;;;;;13.52;73.21;99940.66;5039884;28;20075;-71
2021/05/05 06:09:01;;;;;;;1.23;0.75;;;;;;;13.46;73.71;99939.97;5030988;28;20029;-71
2021/05/05 06:11:27;;;;;;;1.98;0.98;;;;;;;13.43;73.81;99945.25;5049597;28;20109;-71
2021/05/05 06:13:52;;;;;;;1.27;0.70;;;;;;;13.46;73.71;99952.88;5053543;28;20071;-71
2021/05/05 06:16:18;;;;;;;1.58;0.90;;;;;;;13.46;73.77;99953.66;5053593;28;20039;-72
2021/05/05 06:18:44;;;;;;;1.48;0.70;;;;;;;13.38;74.04;99937.94;5060471;28;20109;-71
2021/05/05 06:21:09;;;;;;;1.50;0.90;;;;;;;13.42;74.07;99954.59;5039183;28;20025;-71
2021/05/05 06:23:35;;;;;;;1.60;0.80;;;;;;;13.50;73.57;99970.28;5046511;28;20078;-71
2021/05/05 06:26:00;;;;;;;1.52;0.80;;;;;;;13.46;73.36;99966.56;5054273;28;20032;-71
2021/05/05 06:28:26;;;;;;;0.98;0.73;;;;;;;13.61;72.69;99985.38;5055472;28;20023;-71
2021/05/05 06:30:54;;;;;;;1.35;0.57;;;;;;;13.57;72.15;99989.03;5072605;28;20024;-71
2021/05/05 06:33:19;;;;;;;2.05;0.60;;;;;;;13.59;71.39;99993.09;5065059;28;20025;-72
2021/05/05 06:35:44;;;;;;;2.03;0.63;;;;;;;13.24;70.88;99935.22;5061698;28;20040;-71
2021/05/05 06:38:10;;;;;;;2.65;0.55;;;;;;;13.63;70.26;99998.75;5062567;28;20048;-71
2021/05/05 06:40:35;;;;;;;3.33;0.50;;;;;;;13.07;69.99;99917.50;5055484;28;20140;-70
2021/05/05 06:43:01;;;;;;;1.90;0.85;;;;;;;13.49;69.81;99985.91;5054770;28;20035;-72
2021/05/05 06:45:26;;;;;;;1.02;0.50;;;;;;;13.59;69.57;99993.09;5057443;28;20032;-71
2021/05/05 06:47:51;;;;;;;1.25;0.52;;;;;;;13.64;69.35;99998.44;5059099;28;20496;-71
2021/05/05 06:50:17;;;;;;;1.33;0.73;;;;;;;13.63;69.07;99994.09;5054038;28;20112;-72
2021/05/05 06:52:42;;;;;;;4.18;0.70;;;;;;;13.56;68.55;100007.38;5042315;28;20036;-71
2021/05/05 06:55:10;;;;;;;1.92;0.60;;;;;;;13.49;68.32;100015.22;5053283;28;20112;-70
2021/05/05 06:57:36;;;;;;;2.17;0.60;;;;;;;13.35;68.46;100016.03;5026836;28;20041;-71
2021/05/05 07:00:04;;;;;;;1.48;0.60;;;;;;;13.35;68.25;100005.09;5047351;28;20117;-71
2021/05/05 07:02:30;;;;;;;6.90;1.33;;;;;;;13.24;68.30;99973.56;5050714;28;20036;-71
2021/05/05 07:04:55;;;;;;;3.83;0.60;;;;;;;13.48;68.15;100000.72;5053166;28;20048;-71
2021/05/05 07:07:20;;;;;;;2.50;0.60;;;;;;;13.55;67.82;99994.84;5050669;28;20528;-71
2021/05/05 07:09:48;;;;;;;1.13;0.60;;;;;;;13.58;67.53;99999.69;5059252;28;20024;-71
2021/05/05 07:12:13;;;;;;;2.88;1.08;;;;;;;13.59;67.49;99992.28;5043649;28;20037;-71
2021/05/05 07:14:38;;;;;;;4.13;0.80;;;;;;;13.78;67.53;99998.41;5053606;28;20032;-70
2021/05/05 07:17:04;;;;;;;1.38;0.55;;;;;;;13.90;67.05;99997.84;5055939;28;20017;-72
2021/05/05 07:19:29;;;;;;;2.65;0.70;;;;;;;13.96;66.60;99999.38;5052896;28;20025;-70
2021/05/05 07:21:55;;;;;;;2.38;0.60;;;;;;;13.90;66.66;99999.78;5053974;28;20037;-71
2021/05/05 07:24:20;;;;;;;5.22;0.80;;;;;;;13.91;65.97;100004.16;5053856;28;20425;-72
2021/05/05 07:26:45;;;;;;;2.30;0.90;;;;;;;13.79;65.82;100007.44;5058277;28;20024;-72
2021/05/05 07:29:11;;;;;;;2.63;0.90;;;;;;;13.68;66.00;100007.69;5064212;28;20021;-71
2021/05/05 07:31:36;;;;;;;3.45;0.60;;;;;;;13.71;66.10;100002.69;5058829;28;20540;-72
2021/05/05 07:34:02;;;;;;;3.63;0.93;;;;;;;13.72;65.71;99991.44;5052912;28;20025;-72
2021/05/05 07:36:28;;;;;;;1.52;0.50;;;;;;;13.92;65.58;100006.56;5057341;28;20068;-71
2021/05/05 07:49:16;;;;;;;1.55;0.60;;;;;;;14.25;62.81;100017.28;5055153;28;20497;-71
2021/05/05 07:51:43;;;;;;;2.97;0.65;;;;;;;14.20;62.32;100017.44;5057472;28;20100;-71
2021/05/05 07:54:08;;;;;;;3.05;0.90;;;;;;;14.16;61.89;99995.31;5056125;28;20031;-71
2021/05/05 07:56:34;;;;;;;4.10;0.50;;;;;;;14.31;61.59;99998.78;5045483;28;20033;-71
2021/05/05 07:59:01;;;;;;;2.38;0.45;;;;;;;14.42;61.19;100024.81;5047403;28;20036;-71
2021/05/05 08:01:28;;;;;;;2.65;0.50;;;;;;;14.46;60.83;100003.06;5055461;28;20059;-71
2021/05/05 08:03:53;;;;;;;1.98;0.50;;;;;;;14.51;60.85;100002.94;5050943;28;20025;-71
2021/05/05 08:06:19;;;;;;;3.03;0.70;;;;;;;14.67;61.22;100008.03;5045228;28;20020;-72
2021/05/05 08:08:45;;;;;;;0.60;0.40;;;;;;;14.85;61.00;100004.25;5050421;28;20030;-71
2021/05/05 08:11:10;;;;;;;2.05;0.50;;;;;;;14.85;59.89;100009.75;5037172;28;20064;-71
2021/05/05 08:13:35;;;;;;;2.28;0.40;;;;;;;14.76;59.67;100011.63;5051479;28;20021;-72
2021/05/05 08:16:01;;;;;;;2.10;0.60;;;;;;;14.82;59.52;100015.84;5047283;28;20027;-71
2021/05/05 08:18:27;;;;;;;1.10;0.55;;;;;;;14.79;59.61;100011.81;5058602;28;20047;-70
2021/05/05 08:20:52;;;;;;;1.90;0.50;;;;;;;14.82;59.75;100004.88;5056336;28;20056;-70
2021/05/05 08:23:19;;;;;;;2.22;0.50;;;;;;;14.91;59.86;100004.91;5056832;28;20055;-71
2021/05/05 08:25:47;;;;;;;0.93;0.38;;;;;;;14.97;59.69;100009.13;5049076;28;20025;-71
2021/05/05 08:28:12;;;;;;;3.25;0.60;;;;;;;15.10;59.28;100010.94;5046386;28;20025;-71
2021/05/05 08:30:38;;;;;;;1.45;0.47;;;;;;;15.10;58.91;100021.94;5047473;28;20025;-70
2021/05/05 08:33:05;;;;;;;1.75;0.50;;;;;;;15.05;58.44;100024.81;5056968;28;20082;-70
2021/05/05 08:35:31;;;;;;;1.67;0.60;;;;;;;15.09;58.66;100028.53;5047835;28;20095;-71
2021/05/05 08:37:56;;;;;;;1.67;0.43;;;;;;;15.04;58.41;100019.66;5044531;28;20025;-69
2021/05/05 08:40:22;;;;;;;2.45;0.57;;;;;;;15.07;58.32;100002.53;5051584;28;20037;-69
2021/05/05 08:42:48;;;;;;;2.17;0.40;;;;;;;15.27;58.46;100010.19;5056234;28;20032;-70
2021/05/05 08:45:32;;;;;;;3.90;1.17;;;;;;;15.31;57.91;100009.53;5051004;28;20025;-69
2021/05/05 08:48:00;;;;;;;5.00;0.80;;;;;;;15.37;57.62;100011.81;5056595;28;20024;-70
2021/05/05 08:50:28;;;;;;;3.38;0.57;;;;;;;15.43;57.40;100010.53;5049133;28;20022;-70
2021/05/05 08:52:55;;;;;;;2.42;0.47;;;;;;;15.48;57.39;100012.31;5056621;28;20032;-71
2021/05/05 08:55:22;;;;;;;1.88;0.60;;;;;;;15.55;57.37;100011.84;5047502;28;20486;-70
2021/05/05 08:57:48;;;;;;;1.80;0.60;;;;;;;15.63;57.21;100018.47;5041103;28;20025;-70
2021/05/05 09:00:17;;;;;;;1.65;0.40;;;;;;;15.62;57.43;100017.69;5056471;28;20029;-70
2021/05/05 09:02:43;;;;;;;3.17;0.50;;;;;;;15.61;57.24;100018.00;5038757;28;20102;-70
2021/05/05 09:05:12;;;;;;;1.23;0.60;;;;;;;15.44;56.67;99994.88;5050563;28;20100;-71
2021/05/05 09:07:40;;;;;;;4.22;0.60;;;;;;;15.77;57.13;100027.41;5052560;28;20035;-71
2021/05/05 09:10:13;;;;;;;6.32;0.75;;;;;;;15.87;57.18;100023.53;5057558;28;20096;-71
2021/05/05 09:12:42;;;;;;;3.88;1.27;;;;;;;15.97;57.42;100023.22;5056645;28;20028;-71
2021/05/05 09:15:14;;;;;;;1.88;0.90;;;;;;;16.01;56.57;100034.38;5058057;28;20061;-71
2021/05/05 09:17:44;;;;;;;1.38;0.65;;;;;;;15.92;56.06;100012.38;5062543;28;20108;-71
2021/05/05 09:20:10;;;;;;;1.60;0.52;;;;;;;15.95;55.45;100019.19;5050068;28;20032;-71
2021/05/05 09:22:39;;;;;;;1.45;0.40;;;;;;;15.88;55.24;100012.22;5055792;28;20021;-72
2021/05/05 09:25:08;;;;;;;0.93;0.40;;;;;;;15.44;55.44;99948.16;5055627;28;20024;-71
2021/05/05 09:27:35;;;;;;;1.60;0.50;;;;;;;16.02;55.47;100025.78;5057953;28;20024;-71
2021/05/05 09:30:01;;;;;;;3.95;0.70;;;;;;;16.05;55.68;100029.84;5055924;28;20041;-71
2021/05/05 09:32:27;;;;;;;4.18;0.90;;;;;;;15.57;55.87;99966.44;5055566;28;20397;-72
2021/05/05 09:35:04;;;;;;;1.23;0.65;;;;;;;16.00;55.52;100033.56;5055907;28;20024;-71
2021/05/05 09:37:31;;;;;;;1.98;0.40;;;;;;;16.02;55.81;100041.50;5068430;28;20100;-71
2021/05/05 09:40:08;;;;;;;0.90;0.40;;;;;;;15.97;55.99;100052.66;5051822;28;20026;-72
2021/05/05 09:42:34;;;;;;;2.30;0.65;;;;;;;15.77;55.83;100048.56;5049268;28;20180;-71
2021/05/05 09:45:12;;;;;;;2.90;0.68;;;;;;;15.78;56.20;100048.25;5050521;28;20039;-71
2021/05/05 09:47:49;;;;;;;4.80;0.60;;;;;;;15.96;55.88;100051.84;5053141;28;20104;-71
2021/05/05 09:50:26;;;;;;;0.45;0.40;;;;;;;15.96;54.08;100037.28;5056117;28;20020;-71
2021/05/05 09:53:12;;;;;;;2.78;0.50;;;;;;;16.05;53.92;100060.09;5047050;28;20032;-71
2021/05/05 09:55:37;;;;;;;;;;;;;;;16.01;53.52;100053.63;5054194;28;20025;-71
2021/05/05 09:58:23;;;;;;;3.57;0.40;;;;;;;15.93;52.83;100060.72;5054870;28;19984;-71
2021/05/05 10:01:04;;;;;;;2.05;0.50;;;;;;;15.91;52.74;100056.69;5053843;28;20279;-72
2021/05/05 10:03:48;;;;;;;1.40;0.40;;;;;;;15.92;53.14;100066.56;5059986;28;20039;-72
2021/05/05 10:06:20;;;;;;;0.95;0.40;;;;;;;16.01;53.18;100064.63;5063639;28;20106;-73
2021/05/05 10:08:50;;;;;;;1.00;0.40;;;;;;;16.09;53.18;100079.50;5055237;28;20020;-71
2021/05/05 10:11:43;;;;;;;1.38;0.40;;;;;;;16.16;52.18;100071.56;5057656;28;20298;-71
2021/05/05 10:14:11;;;;;;;2.60;0.60;;;;;;;16.30;51.86;100071.41;5049764;28;20575;-71
2021/05/05 10:16:40;;;;;;;2.40;0.50;;;;;;;16.48;51.60;100073.00;5056537;28;20116;-71
2021/05/05 10:19:14;;;;;;;2.67;0.60;;;;;;;16.57;51.10;100080.44;5050270;28;20051;-71
2021/05/05 10:21:45;;;;;;;2.53;0.60;;;;;;;16.52;51.11;100051.13;5052978;28;20029;-71
2021/05/05 10:24:11;;;;;;;3.03;0.55;;;;;;;16.65;50.71;100076.84;5053329;28;20040;-72
2021/05/05 10:26:40;;;;;;;1.73;0.65;;;;;;;16.65;50.85;100074.09;5043320;28;20038;-71
2021/05/05 10:29:05;;;;;;;2.58;0.60;;;;;;;16.73;50.92;100062.25;5052639;28;20433;-71
2021/05/05 10:31:34;;;;;;;2.40;0.60;;;;;;;16.92;50.78;100074.84;5054633;28;20450;-71
2021/05/05 10:34:01;;;;;;;1.95;0.63;;;;;;;17.00;50.58;100079.53;5044766;28;20033;-71
2021/05/05 10:36:38;;;;;;;1.77;0.70;;;;;;;16.98;50.46;100059.78;5048875;28;20211;-71
2021/05/05 10:39:25;;;;;;;1.65;0.60;;;;;;;16.99;49.63;100077.91;5048994;28;20497;-71
2021/05/05 10:42:14;;;;;;;3.42;0.90;;;;;;;17.02;49.88;100079.19;5052436;28;20045;-72
2021/05/05 10:44:42;;;;;;;2.75;0.63;;;;;;;17.03;49.85;100078.06;5048935;28;20417;-72
2021/05/05 10:47:19;;;;;;;3.17;0.80;;;;;;;16.92;48.48;100072.09;5054799;28;20419;-71
2021/05/05 10:50:08;;;;;;;1.25;0.40;;;;;;;17.04;47.38;100074.16;5052527;28;20082;-72
2021/05/05 10:52:42;;;;;;;2.53;0.60;;;;;;;17.11;48.71;100082.72;5049956;28;20037;-71
2021/05/05 10:55:13;;;;;;;2.20;0.60;;;;;;;17.29;48.61;100076.00;5053669;28;21423;-71
2021/05/05 10:57:41;;;;;;;1.85;0.50;;;;;;;17.28;47.61;100073.56;5053354;28;20756;-71
2021/05/05 11:00:10;;;;;;;4.28;0.80;;;;;;;17.29;47.74;100077.94;5055942;28;20025;-71
2021/05/05 11:02:48;;;;;;;1.67;0.50;;;;;;;17.38;47.48;100066.88;5051022;28;20025;-72
2021/05/05 11:05:16;;;;;;;2.92;0.55;;;;;;;17.25;47.65;100044.72;5049298;28;20505;-71
2021/05/05 11:07:58;;;;;;;1.90;0.68;;;;;;;17.23;46.72;100046.22;5059025;28;20480;-71
2021/05/05 11:10:33;;;;;;;4.65;0.60;;;;;;;17.28;47.14;100068.88;5061019;28;20028;-71
2021/05/05 11:12:59;;;;;;;2.15;0.65;;;;;;;17.20;47.56;100071.66;5052397;28;20040;-71
2021/05/05 11:15:48;;;;;;;4.00;1.13;;;;;;;17.29;47.56;100061.41;5048860;28;20021;-72
2021/05/05 11:18:25;;;;;;;1.20;0.50;;;;;;;17.33;47.83;100061.53;5043550;28;20041;-71
2021/05/05 11:20:52;;;;;;;2.95;0.70;;;;;;;17.24;47.55;100047.81;5057453;28;20025;-71
2021/05/05 11:23:33;;;;;;;3.70;0.60;;;;;;;17.27;46.74;100074.72;5057282;28;20029;-71
2021/05/05 11:26:16;;;;;;;3.30;0.65;;;;;;;17.21;47.34;100057.56;5053001;28;20020;-72
2021/05/05 11:29:10;;;;;;;1.50;0.60;;;;;;;17.39;47.33;100063.78;5048922;28;20529;-67
2021/05/05 11:31:48;;;;;;;2.35;0.65;;;;;;;17.46;46.35;100052.25;5052865;28;20028;-72
2021/05/05 11:34:26;;;;;;;2.95;0.75;;;;;;;17.70;46.73;100053.56;5052265;28;20031;-71
2021/05/05 11:36:57;;;;;;;2.70;0.65;;;;;;;17.89;45.78;100042.84;5052014;28;20032;-71
2021/05/05 11:39:25;;;;;;;1.58;0.80;;;;;;;17.91;45.97;100028.75;5056115;28;20060;-72
2021/05/05 11:41:54;;;;;;;2.78;0.98;;;;;;;18.06;45.49;100050.22;5056575;28;20175;-72
2021/05/05 11:45:00;;;;;;;2.70;0.80;;;;;;;17.75;45.47;100001.78;5050822;28;20037;-72